Terminal Aerodrome Forecast
Issued by NWS Albany, NY

Home | Current Version | Previous Version | Text Only | Print | Product List | Glossary On
Versions: 1 2 3 4 5 6 7 8 9 10 11 12 13 14 15 16 17 18 19 20 21 22 23 24 25 26
000
FTUS41 KALY 291100
TAFPOU
TAF
KPOU 291120Z 2912/3012 VRB03KT P6SM SCT250
     FM292100 17005KT P6SM BKN080 OVC100
     FM300100 17007KT P6SM VCSH BKN010 OVC050
     FM300300 17005KT 3SM -SN OVC012=

USA.gov is the U.S. government's official web portal to all federal, state and local government web resources and services.